sensor_id;sensor_type;location;lat;lon;timestamp;P1;durP1;ratioP1;P2;durP2;ratioP2
29314;SDS011;16320;53.954;9.506;2022-12-29T00:00:26;25.70;;;17.75;;
29314;SDS011;16320;53.954;9.506;2022-12-29T00:03:31;26.55;;;18.58;;
29314;SDS011;16320;53.954;9.506;2022-12-29T00:06:36;25.70;;;18.27;;
29314;SDS011;16320;53.954;9.506;2022-12-29T00:09:41;29.60;;;18.92;;
29314;SDS011;16320;53.954;9.506;2022-12-29T00:12:45;25.42;;;18.42;;
29314;SDS011;16320;53.954;9.506;2022-12-29T00:16:18;26.83;;;18.88;;
29314;SDS011;16320;53.954;9.506;2022-12-29T00:19:23;27.70;;;19.20;;
29314;SDS011;16320;53.954;9.506;2022-12-29T00:22:46;30.75;;;19.40;;
29314;SDS011;16320;53.954;9.506;2022-12-29T00:26:19;26.73;;;18.92;;
29314;SDS011;16320;53.954;9.506;2022-12-29T00:29:42;26.25;;;19.38;;
29314;SDS011;16320;53.954;9.506;2022-12-29T00:33:12;25.98;;;18.73;;
29314;SDS011;16320;53.954;9.506;2022-12-29T00:36:39;24.38;;;18.80;;
29314;SDS011;16320;53.954;9.506;2022-12-29T00:39:45;29.85;;;21.10;;
29314;SDS011;16320;53.954;9.506;2022-12-29T00:43:08;31.23;;;21.30;;
29314;SDS011;16320;53.954;9.506;2022-12-29T00:46:34;32.70;;;22.05;;
29314;SDS011;16320;53.954;9.506;2022-12-29T00:49:45;27.38;;;20.67;;
29314;SDS011;16320;53.954;9.506;2022-12-29T00:52:50;32.78;;;21.85;;
29314;SDS011;16320;53.954;9.506;2022-12-29T00:55:55;30.38;;;21.25;;
29314;SDS011;16320;53.954;9.506;2022-12-29T00:59:03;32.67;;;21.25;;
29314;SDS011;16320;53.954;9.506;2022-12-29T01:02:12;29.88;;;20.60;;
29314;SDS011;16320;53.954;9.506;2022-12-29T01:05:16;29.15;;;21.23;;
29314;SDS011;16320;53.954;9.506;2022-12-29T01:08:21;31.00;;;20.80;;
29314;SDS011;16320;53.954;9.506;2022-12-29T01:11:25;29.92;;;20.42;;
29314;SDS011;16320;53.954;9.506;2022-12-29T01:14:29;33.42;;;21.75;;
29314;SDS011;16320;53.954;9.506;2022-12-29T01:17:34;33.05;;;21.65;;
29314;SDS011;16320;53.954;9.506;2022-12-29T01:20:39;28.40;;;20.88;;
29314;SDS011;16320;53.954;9.506;2022-12-29T01:23:43;31.25;;;22.02;;
29314;SDS011;16320;53.954;9.506;2022-12-29T01:26:48;30.00;;;21.35;;
29314;SDS011;16320;53.954;9.506;2022-12-29T01:29:52;28.88;;;21.00;;
29314;SDS011;16320;53.954;9.506;2022-12-29T01:32:57;29.92;;;21.25;;
29314;SDS011;16320;53.954;9.506;2022-12-29T01:36:02;29.45;;;20.77;;
29314;SDS011;16320;53.954;9.506;2022-12-29T01:39:07;29.23;;;21.45;;
29314;SDS011;16320;53.954;9.506;2022-12-29T01:42:16;33.83;;;21.00;;
29314;SDS011;16320;53.954;9.506;2022-12-29T01:45:23;30.55;;;20.58;;
29314;SDS011;16320;53.954;9.506;2022-12-29T01:48:27;28.70;;;20.05;;
29314;SDS011;16320;53.954;9.506;2022-12-29T01:51:32;26.42;;;19.45;;
29314;SDS011;16320;53.954;9.506;2022-12-29T01:54:54;29.65;;;20.45;;
29314;SDS011;16320;53.954;9.506;2022-12-29T01:58:01;29.23;;;21.08;;
29314;SDS011;16320;53.954;9.506;2022-12-29T02:01:08;30.90;;;19.98;;
29314;SDS011;16320;53.954;9.506;2022-12-29T02:04:14;30.02;;;20.95;;
29314;SDS011;16320;53.954;9.506;2022-12-29T02:07:21;29.48;;;19.83;;
29314;SDS011;16320;53.954;9.506;2022-12-29T02:10:30;26.58;;;19.90;;
29314;SDS011;16320;53.954;9.506;2022-12-29T02:13:37;27.98;;;19.98;;
29314;SDS011;16320;53.954;9.506;2022-12-29T02:23:48;27.45;;;20.65;;
29314;SDS011;16320;53.954;9.506;2022-12-29T02:30:44;30.23;;;20.98;;
29314;SDS011;16320;53.954;9.506;2022-12-29T02:45:47;28.33;;;20.45;;
29314;SDS011;16320;53.954;9.506;2022-12-29T02:49:06;29.85;;;20.55;;
29314;SDS011;16320;53.954;9.506;2022-12-29T02:52:46;29.25;;;21.02;;
29314;SDS011;16320;53.954;9.506;2022-12-29T02:55:58;29.65;;;21.10;;
29314;SDS011;16320;53.954;9.506;2022-12-29T02:59:03;28.50;;;19.90;;
29314;SDS011;16320;53.954;9.506;2022-12-29T03:09:02;32.42;;;20.85;;
29314;SDS011;16320;53.954;9.506;2022-12-29T03:12:28;29.33;;;21.15;;
29314;SDS011;16320;53.954;9.506;2022-12-29T03:19:35;34.65;;;20.05;;
29314;SDS011;16320;53.954;9.506;2022-12-29T03:22:49;26.85;;;18.77;;
29314;SDS011;16320;53.954;9.506;2022-12-29T03:25:58;27.75;;;19.63;;
29314;SDS011;16320;53.954;9.506;2022-12-29T03:29:06;25.05;;;18.58;;
29314;SDS011;16320;53.954;9.506;2022-12-29T03:32:13;27.95;;;19.38;;
29314;SDS011;16320;53.954;9.506;2022-12-29T03:35:21;24.90;;;18.48;;
29314;SDS011;16320;53.954;9.506;2022-12-29T03:38:41;26.67;;;18.83;;
29314;SDS011;16320;53.954;9.506;2022-12-29T03:42:11;24.23;;;16.63;;
29314;SDS011;16320;53.954;9.506;2022-12-29T03:45:22;23.13;;;17.80;;
29314;SDS011;16320;53.954;9.506;2022-12-29T03:48:27;22.80;;;16.65;;
29314;SDS011;16320;53.954;9.506;2022-12-29T03:51:31;21.83;;;16.98;;
29314;SDS011;16320;53.954;9.506;2022-12-29T03:54:37;20.58;;;16.73;;
29314;SDS011;16320;53.954;9.506;2022-12-29T03:57:41;22.60;;;15.70;;
29314;SDS011;16320;53.954;9.506;2022-12-29T04:00:46;19.77;;;15.43;;
29314;SDS011;16320;53.954;9.506;2022-12-29T04:09:59;20.75;;;15.15;;
29314;SDS011;16320;53.954;9.506;2022-12-29T04:16:07;18.33;;;14.00;;
29314;SDS011;16320;53.954;9.506;2022-12-29T04:19:12;19.52;;;14.68;;
29314;SDS011;16320;53.954;9.506;2022-12-29T04:22:17;19.80;;;14.50;;
29314;SDS011;16320;53.954;9.506;2022-12-29T04:25:22;17.20;;;13.75;;
29314;SDS011;16320;53.954;9.506;2022-12-29T04:28:30;15.60;;;13.68;;
29314;SDS011;16320;53.954;9.506;2022-12-29T04:31:35;16.88;;;13.73;;
29314;SDS011;16320;53.954;9.506;2022-12-29T04:34:39;17.65;;;12.85;;
29314;SDS011;16320;53.954;9.506;2022-12-29T04:37:43;17.58;;;12.80;;
29314;SDS011;16320;53.954;9.506;2022-12-29T04:40:48;15.07;;;13.05;;
29314;SDS011;16320;53.954;9.506;2022-12-29T04:43:54;16.08;;;12.43;;
29314;SDS011;16320;53.954;9.506;2022-12-29T04:46:59;16.67;;;13.23;;
29314;SDS011;16320;53.954;9.506;2022-12-29T04:50:03;13.65;;;11.98;;
29314;SDS011;16320;53.954;9.506;2022-12-29T04:53:08;13.60;;;12.10;;
29314;SDS011;16320;53.954;9.506;2022-12-29T04:56:13;16.30;;;12.02;;
29314;SDS011;16320;53.954;9.506;2022-12-29T04:59:17;14.27;;;11.80;;
29314;SDS011;16320;53.954;9.506;2022-12-29T05:02:22;15.15;;;12.73;;
29314;SDS011;16320;53.954;9.506;2022-12-29T05:05:27;20.38;;;12.63;;
29314;SDS011;16320;53.954;9.506;2022-12-29T05:08:31;13.52;;;11.85;;
29314;SDS011;16320;53.954;9.506;2022-12-29T05:11:36;13.32;;;11.95;;
29314;SDS011;16320;53.954;9.506;2022-12-29T05:14:40;13.18;;;11.77;;
29314;SDS011;16320;53.954;9.506;2022-12-29T05:17:46;13.70;;;11.85;;
29314;SDS011;16320;53.954;9.506;2022-12-29T05:20:51;13.13;;;11.43;;
29314;SDS011;16320;53.954;9.506;2022-12-29T05:23:55;14.25;;;11.63;;
29314;SDS011;16320;53.954;9.506;2022-12-29T05:27:00;12.43;;;11.13;;
29314;SDS011;16320;53.954;9.506;2022-12-29T05:30:05;12.30;;;10.82;;
29314;SDS011;16320;53.954;9.506;2022-12-29T05:33:10;11.77;;;10.43;;
29314;SDS011;16320;53.954;9.506;2022-12-29T05:36:15;14.07;;;11.18;;
29314;SDS011;16320;53.954;9.506;2022-12-29T05:39:21;12.18;;;10.13;;
29314;SDS011;16320;53.954;9.506;2022-12-29T05:42:26;16.10;;;9.70;;
29314;SDS011;16320;53.954;9.506;2022-12-29T05:45:30;11.23;;;9.23;;
29314;SDS011;16320;53.954;9.506;2022-12-29T05:48:35;12.48;;;9.90;;
29314;SDS011;16320;53.954;9.506;2022-12-29T05:51:41;10.70;;;8.88;;
29314;SDS011;16320;53.954;9.506;2022-12-29T05:54:45;12.05;;;8.88;;
29314;SDS011;16320;53.954;9.506;2022-12-29T05:57:49;11.50;;;9.38;;
29314;SDS011;16320;53.954;9.506;2022-12-29T06:00:54;11.25;;;9.18;;
29314;SDS011;16320;53.954;9.506;2022-12-29T06:03:58;10.43;;;9.32;;
29314;SDS011;16320;53.954;9.506;2022-12-29T06:07:05;12.32;;;9.95;;
29314;SDS011;16320;53.954;9.506;2022-12-29T06:10:09;15.38;;;9.52;;
29314;SDS011;16320;53.954;9.506;2022-12-29T06:13:16;13.38;;;9.48;;
29314;SDS011;16320;53.954;9.506;2022-12-29T06:16:20;12.82;;;10.27;;
29314;SDS011;16320;53.954;9.506;2022-12-29T06:19:25;10.82;;;9.70;;
29314;SDS011;16320;53.954;9.506;2022-12-29T06:22:30;11.43;;;10.07;;
29314;SDS011;16320;53.954;9.506;2022-12-29T06:25:35;11.55;;;9.77;;
29314;SDS011;16320;53.954;9.506;2022-12-29T06:28:39;13.50;;;10.15;;
29314;SDS011;16320;53.954;9.506;2022-12-29T06:31:44;17.45;;;10.48;;
29314;SDS011;16320;53.954;9.506;2022-12-29T06:34:53;11.93;;;9.85;;
29314;SDS011;16320;53.954;9.506;2022-12-29T06:37:57;10.73;;;9.02;;
29314;SDS011;16320;53.954;9.506;2022-12-29T06:41:01;10.05;;;8.70;;
29314;SDS011;16320;53.954;9.506;2022-12-29T06:44:06;14.90;;;10.27;;
29314;SDS011;16320;53.954;9.506;2022-12-29T06:47:10;11.57;;;8.43;;
29314;SDS011;16320;53.954;9.506;2022-12-29T06:50:14;8.98;;;7.45;;
29314;SDS011;16320;53.954;9.506;2022-12-29T06:53:20;8.00;;;6.32;;
29314;SDS011;16320;53.954;9.506;2022-12-29T06:56:24;5.93;;;5.32;;
29314;SDS011;16320;53.954;9.506;2022-12-29T07:02:33;4.97;;;3.42;;
29314;SDS011;16320;53.954;9.506;2022-12-29T07:05:37;3.92;;;2.85;;
29314;SDS011;16320;53.954;9.506;2022-12-29T07:08:41;10.48;;;3.10;;
29314;SDS011;16320;53.954;9.506;2022-12-29T07:11:48;3.13;;;1.90;;
29314;SDS011;16320;53.954;9.506;2022-12-29T07:14:53;4.63;;;2.03;;
29314;SDS011;16320;53.954;9.506;2022-12-29T07:17:57;5.28;;;1.83;;
29314;SDS011;16320;53.954;9.506;2022-12-29T07:21:01;3.30;;;1.50;;
29314;SDS011;16320;53.954;9.506;2022-12-29T07:24:07;5.25;;;1.70;;
29314;SDS011;16320;53.954;9.506;2022-12-29T07:27:12;5.80;;;2.08;;
29314;SDS011;16320;53.954;9.506;2022-12-29T07:30:17;4.88;;;1.73;;
29314;SDS011;16320;53.954;9.506;2022-12-29T07:33:22;6.18;;;2.00;;
29314;SDS011;16320;53.954;9.506;2022-12-29T07:36:26;3.28;;;1.83;;
29314;SDS011;16320;53.954;9.506;2022-12-29T07:39:37;5.18;;;2.47;;
29314;SDS011;16320;53.954;9.506;2022-12-29T07:42:41;7.75;;;2.05;;
29314;SDS011;16320;53.954;9.506;2022-12-29T07:45:46;6.88;;;1.88;;
29314;SDS011;16320;53.954;9.506;2022-12-29T07:48:52;3.85;;;1.80;;
29314;SDS011;16320;53.954;9.506;2022-12-29T07:51:56;7.50;;;1.70;;
29314;SDS011;16320;53.954;9.506;2022-12-29T07:55:01;3.88;;;1.98;;
29314;SDS011;16320;53.954;9.506;2022-12-29T07:58:06;5.35;;;1.77;;
29314;SDS011;16320;53.954;9.506;2022-12-29T08:01:10;5.43;;;1.77;;
29314;SDS011;16320;53.954;9.506;2022-12-29T08:04:15;4.97;;;1.55;;
29314;SDS011;16320;53.954;9.506;2022-12-29T08:07:19;7.45;;;1.92;;
29314;SDS011;16320;53.954;9.506;2022-12-29T08:10:25;6.40;;;1.95;;
29314;SDS011;16320;53.954;9.506;2022-12-29T08:13:29;5.35;;;1.17;;
29314;SDS011;16320;53.954;9.506;2022-12-29T08:16:33;6.80;;;1.58;;
29314;SDS011;16320;53.954;9.506;2022-12-29T08:19:38;7.57;;;1.77;;
29314;SDS011;16320;53.954;9.506;2022-12-29T08:22:43;5.22;;;1.40;;
29314;SDS011;16320;53.954;9.506;2022-12-29T08:25:56;6.50;;;1.33;;
29314;SDS011;16320;53.954;9.506;2022-12-29T08:29:05;5.80;;;1.23;;
29314;SDS011;16320;53.954;9.506;2022-12-29T08:32:09;4.32;;;1.20;;
29314;SDS011;16320;53.954;9.506;2022-12-29T08:35:14;6.18;;;1.17;;
29314;SDS011;16320;53.954;9.506;2022-12-29T08:38:19;6.35;;;1.33;;
29314;SDS011;16320;53.954;9.506;2022-12-29T08:41:23;6.70;;;1.02;;
29314;SDS011;16320;53.954;9.506;2022-12-29T08:44:28;4.00;;;1.05;;
29314;SDS011;16320;53.954;9.506;2022-12-29T08:47:32;3.10;;;1.30;;
29314;SDS011;16320;53.954;9.506;2022-12-29T08:50:37;4.63;;;0.90;;
29314;SDS011;16320;53.954;9.506;2022-12-29T08:53:41;6.15;;;1.65;;
29314;SDS011;16320;53.954;9.506;2022-12-29T08:56:45;7.07;;;1.13;;
29314;SDS011;16320;53.954;9.506;2022-12-29T08:59:50;7.03;;;1.25;;
29314;SDS011;16320;53.954;9.506;2022-12-29T09:02:54;10.13;;;1.40;;
29314;SDS011;16320;53.954;9.506;2022-12-29T09:05:59;8.25;;;1.27;;
29314;SDS011;16320;53.954;9.506;2022-12-29T09:09:08;10.60;;;1.58;;
29314;SDS011;16320;53.954;9.506;2022-12-29T09:12:16;8.18;;;1.42;;
29314;SDS011;16320;53.954;9.506;2022-12-29T09:15:22;9.25;;;1.70;;
29314;SDS011;16320;53.954;9.506;2022-12-29T09:18:26;4.75;;;1.33;;
29314;SDS011;16320;53.954;9.506;2022-12-29T09:21:32;9.40;;;1.58;;
29314;SDS011;16320;53.954;9.506;2022-12-29T09:24:36;3.65;;;0.90;;
29314;SDS011;16320;53.954;9.506;2022-12-29T09:27:41;9.63;;;1.77;;
29314;SDS011;16320;53.954;9.506;2022-12-29T09:30:47;4.40;;;1.08;;
29314;SDS011;16320;53.954;9.506;2022-12-29T09:33:52;11.30;;;1.55;;
29314;SDS011;16320;53.954;9.506;2022-12-29T09:36:56;14.93;;;1.95;;
29314;SDS011;16320;53.954;9.506;2022-12-29T09:40:01;5.38;;;1.50;;
29314;SDS011;16320;53.954;9.506;2022-12-29T09:47:06;7.82;;;1.90;;
29314;SDS011;16320;53.954;9.506;2022-12-29T09:50:22;11.57;;;1.63;;
29314;SDS011;16320;53.954;9.506;2022-12-29T09:53:46;8.43;;;1.25;;
29314;SDS011;16320;53.954;9.506;2022-12-29T09:57:03;8.93;;;1.10;;
29314;SDS011;16320;53.954;9.506;2022-12-29T10:03:31;8.85;;;1.40;;
29314;SDS011;16320;53.954;9.506;2022-12-29T10:28:37;10.90;;;1.42;;
29314;SDS011;16320;53.954;9.506;2022-12-29T10:31:56;11.25;;;2.17;;
29314;SDS011;16320;53.954;9.506;2022-12-29T10:35:12;9.80;;;1.58;;
29314;SDS011;16320;53.954;9.506;2022-12-29T10:38:35;10.30;;;1.98;;
29314;SDS011;16320;53.954;9.506;2022-12-29T10:42:01;5.07;;;0.98;;
29314;SDS011;16320;53.954;9.506;2022-12-29T10:45:13;14.00;;;1.63;;
29314;SDS011;16320;53.954;9.506;2022-12-29T10:48:21;7.82;;;1.10;;
29314;SDS011;16320;53.954;9.506;2022-12-29T10:51:36;9.45;;;1.83;;
29314;SDS011;16320;53.954;9.506;2022-12-29T10:54:51;9.10;;;1.42;;
29314;SDS011;16320;53.954;9.506;2022-12-29T10:58:06;11.95;;;1.80;;
29314;SDS011;16320;53.954;9.506;2022-12-29T11:01:17;10.90;;;1.73;;
29314;SDS011;16320;53.954;9.506;2022-12-29T11:08:01;14.07;;;1.90;;
29314;SDS011;16320;53.954;9.506;2022-12-29T11:11:15;12.38;;;1.92;;
29314;SDS011;16320;53.954;9.506;2022-12-29T11:14:38;8.93;;;1.63;;
29314;SDS011;16320;53.954;9.506;2022-12-29T11:17:48;14.05;;;1.40;;
29314;SDS011;16320;53.954;9.506;2022-12-29T11:24:33;12.70;;;1.88;;
29314;SDS011;16320;53.954;9.506;2022-12-29T11:28:03;10.50;;;1.80;;
29314;SDS011;16320;53.954;9.506;2022-12-29T11:31:22;7.05;;;1.48;;
29314;SDS011;16320;53.954;9.506;2022-12-29T11:34:32;8.85;;;1.77;;
29314;SDS011;16320;53.954;9.506;2022-12-29T11:37:42;7.68;;;1.80;;
29314;SDS011;16320;53.954;9.506;2022-12-29T11:40:48;8.23;;;1.80;;
29314;SDS011;16320;53.954;9.506;2022-12-29T11:43:53;13.77;;;1.88;;
29314;SDS011;16320;53.954;9.506;2022-12-29T11:47:06;9.07;;;1.60;;
29314;SDS011;16320;53.954;9.506;2022-12-29T11:50:17;5.70;;;1.90;;
29314;SDS011;16320;53.954;9.506;2022-12-29T11:56:50;10.68;;;2.53;;
29314;SDS011;16320;53.954;9.506;2022-12-29T11:59:55;12.30;;;1.38;;
29314;SDS011;16320;53.954;9.506;2022-12-29T12:03:03;7.47;;;1.40;;
29314;SDS011;16320;53.954;9.506;2022-12-29T12:06:23;9.77;;;1.90;;
29314;SDS011;16320;53.954;9.506;2022-12-29T12:09:37;13.88;;;1.42;;
29314;SDS011;16320;53.954;9.506;2022-12-29T12:13:20;13.50;;;1.88;;
29314;SDS011;16320;53.954;9.506;2022-12-29T12:17:16;7.57;;;1.63;;
29314;SDS011;16320;53.954;9.506;2022-12-29T12:27:37;7.90;;;1.65;;
29314;SDS011;16320;53.954;9.506;2022-12-29T12:31:00;10.15;;;1.40;;
29314;SDS011;16320;53.954;9.506;2022-12-29T12:34:11;11.15;;;2.28;;
29314;SDS011;16320;53.954;9.506;2022-12-29T13:23:54;8.43;;;1.92;;
29314;SDS011;16320;53.954;9.506;2022-12-29T13:38:26;7.53;;;2.42;;
29314;SDS011;16320;53.954;9.506;2022-12-29T13:41:47;6.97;;;1.45;;
29314;SDS011;16320;53.954;9.506;2022-12-29T13:45:02;9.95;;;1.98;;
29314;SDS011;16320;53.954;9.506;2022-12-29T13:48:14;13.73;;;2.10;;
29314;SDS011;16320;53.954;9.506;2022-12-29T13:51:26;9.80;;;2.03;;
29314;SDS011;16320;53.954;9.506;2022-12-29T14:04:57;20.63;;;2.60;;
29314;SDS011;16320;53.954;9.506;2022-12-29T14:08:25;13.05;;;2.88;;
29314;SDS011;16320;53.954;9.506;2022-12-29T14:11:36;12.48;;;1.90;;
29314;SDS011;16320;53.954;9.506;2022-12-29T14:14:43;19.13;;;2.80;;
29314;SDS011;16320;53.954;9.506;2022-12-29T14:18:02;12.85;;;2.25;;
29314;SDS011;16320;53.954;9.506;2022-12-29T14:21:29;10.60;;;2.10;;
29314;SDS011;16320;53.954;9.506;2022-12-29T14:31:00;13.15;;;2.00;;
29314;SDS011;16320;53.954;9.506;2022-12-29T14:34:30;13.85;;;2.72;;
29314;SDS011;16320;53.954;9.506;2022-12-29T14:37:42;15.85;;;2.63;;
29314;SDS011;16320;53.954;9.506;2022-12-29T14:40:47;9.13;;;2.30;;
29314;SDS011;16320;53.954;9.506;2022-12-29T14:50:40;26.08;;;2.83;;
29314;SDS011;16320;53.954;9.506;2022-12-29T14:53:49;13.07;;;3.13;;
29314;SDS011;16320;53.954;9.506;2022-12-29T14:56:56;12.48;;;2.40;;
29314;SDS011;16320;53.954;9.506;2022-12-29T15:00:22;15.15;;;2.30;;
29314;SDS011;16320;53.954;9.506;2022-12-29T15:03:44;12.45;;;1.98;;
29314;SDS011;16320;53.954;9.506;2022-12-29T15:06:55;15.82;;;2.30;;
29314;SDS011;16320;53.954;9.506;2022-12-29T15:10:03;14.43;;;2.80;;
29314;SDS011;16320;53.954;9.506;2022-12-29T15:13:20;18.48;;;3.15;;
29314;SDS011;16320;53.954;9.506;2022-12-29T15:16:30;12.10;;;2.40;;
29314;SDS011;16320;53.954;9.506;2022-12-29T15:19:37;19.30;;;2.70;;
29314;SDS011;16320;53.954;9.506;2022-12-29T15:22:46;22.20;;;3.15;;
29314;SDS011;16320;53.954;9.506;2022-12-29T15:26:02;16.27;;;2.90;;
29314;SDS011;16320;53.954;9.506;2022-12-29T15:32:45;12.82;;;2.53;;
29314;SDS011;16320;53.954;9.506;2022-12-29T15:35:52;12.88;;;2.55;;
29314;SDS011;16320;53.954;9.506;2022-12-29T15:38:58;20.48;;;2.90;;
29314;SDS011;16320;53.954;9.506;2022-12-29T15:45:28;17.67;;;3.08;;
29314;SDS011;16320;53.954;9.506;2022-12-29T15:48:37;10.45;;;2.30;;
29314;SDS011;16320;53.954;9.506;2022-12-29T15:51:42;19.83;;;2.45;;
29314;SDS011;16320;53.954;9.506;2022-12-29T15:54:51;16.23;;;3.08;;
29314;SDS011;16320;53.954;9.506;2022-12-29T15:57:58;21.67;;;3.28;;
29314;SDS011;16320;53.954;9.506;2022-12-29T16:01:23;16.52;;;2.30;;
29314;SDS011;16320;53.954;9.506;2022-12-29T16:04:33;17.15;;;2.60;;
29314;SDS011;16320;53.954;9.506;2022-12-29T16:07:59;17.50;;;7.30;;
29314;SDS011;16320;53.954;9.506;2022-12-29T16:11:22;19.40;;;6.32;;
29314;SDS011;16320;53.954;9.506;2022-12-29T16:14:44;18.52;;;7.20;;
29314;SDS011;16320;53.954;9.506;2022-12-29T16:18:03;16.80;;;6.30;;
29314;SDS011;16320;53.954;9.506;2022-12-29T16:21:15;23.02;;;4.53;;
29314;SDS011;16320;53.954;9.506;2022-12-29T16:24:28;12.75;;;2.70;;
29314;SDS011;16320;53.954;9.506;2022-12-29T16:27:40;16.00;;;3.00;;
29314;SDS011;16320;53.954;9.506;2022-12-29T16:30:46;19.35;;;3.15;;
29314;SDS011;16320;53.954;9.506;2022-12-29T16:33:52;21.70;;;3.47;;
29314;SDS011;16320;53.954;9.506;2022-12-29T16:37:02;22.00;;;2.42;;
29314;SDS011;16320;53.954;9.506;2022-12-29T16:40:25;13.80;;;2.03;;
29314;SDS011;16320;53.954;9.506;2022-12-29T16:43:35;20.23;;;4.53;;
29314;SDS011;16320;53.954;9.506;2022-12-29T16:47:19;17.25;;;3.15;;
29314;SDS011;16320;53.954;9.506;2022-12-29T16:50:17;14.25;;;3.30;;
29314;SDS011;16320;53.954;9.506;2022-12-29T16:53:32;18.33;;;4.50;;
29314;SDS011;16320;53.954;9.506;2022-12-29T16:56:43;16.55;;;3.63;;
29314;SDS011;16320;53.954;9.506;2022-12-29T16:59:50;14.20;;;3.17;;
29314;SDS011;16320;53.954;9.506;2022-12-29T17:02:59;19.38;;;3.75;;
29314;SDS011;16320;53.954;9.506;2022-12-29T17:06:09;16.40;;;4.55;;
29314;SDS011;16320;53.954;9.506;2022-12-29T17:12:27;18.58;;;2.75;;
29314;SDS011;16320;53.954;9.506;2022-12-29T17:15:33;16.67;;;2.97;;
29314;SDS011;16320;53.954;9.506;2022-12-29T17:18:38;22.40;;;3.80;;
29314;SDS011;16320;53.954;9.506;2022-12-29T17:21:43;17.13;;;3.20;;
29314;SDS011;16320;53.954;9.506;2022-12-29T17:24:47;17.77;;;3.40;;
29314;SDS011;16320;53.954;9.506;2022-12-29T17:27:55;18.75;;;4.10;;
29314;SDS011;16320;53.954;9.506;2022-12-29T17:31:07;20.02;;;3.65;;
29314;SDS011;16320;53.954;9.506;2022-12-29T17:34:13;14.85;;;3.85;;
29314;SDS011;16320;53.954;9.506;2022-12-29T17:37:27;12.68;;;3.03;;
29314;SDS011;16320;53.954;9.506;2022-12-29T17:40:37;16.92;;;3.90;;
29314;SDS011;16320;53.954;9.506;2022-12-29T17:43:41;20.48;;;4.30;;
29314;SDS011;16320;53.954;9.506;2022-12-29T17:46:46;18.08;;;3.47;;
29314;SDS011;16320;53.954;9.506;2022-12-29T17:49:51;15.15;;;2.88;;
29314;SDS011;16320;53.954;9.506;2022-12-29T17:56:16;14.60;;;3.88;;
29314;SDS011;16320;53.954;9.506;2022-12-29T17:59:21;20.77;;;4.65;;
29314;SDS011;16320;53.954;9.506;2022-12-29T18:02:27;15.52;;;3.60;;
29314;SDS011;16320;53.954;9.506;2022-12-29T18:05:34;21.48;;;4.55;;
29314;SDS011;16320;53.954;9.506;2022-12-29T18:08:38;11.65;;;3.97;;
29314;SDS011;16320;53.954;9.506;2022-12-29T18:11:44;17.05;;;3.60;;
29314;SDS011;16320;53.954;9.506;2022-12-29T18:14:48;18.30;;;3.90;;
29314;SDS011;16320;53.954;9.506;2022-12-29T18:17:54;15.65;;;4.07;;
29314;SDS011;16320;53.954;9.506;2022-12-29T18:21:19;15.25;;;3.08;;
29314;SDS011;16320;53.954;9.506;2022-12-29T18:24:26;15.63;;;4.30;;
29314;SDS011;16320;53.954;9.506;2022-12-29T18:27:31;20.35;;;4.22;;
29314;SDS011;16320;53.954;9.506;2022-12-29T18:30:35;20.95;;;4.53;;
29314;SDS011;16320;53.954;9.506;2022-12-29T18:33:40;16.90;;;5.32;;
29314;SDS011;16320;53.954;9.506;2022-12-29T18:36:44;23.10;;;5.53;;
29314;SDS011;16320;53.954;9.506;2022-12-29T18:39:49;34.17;;;9.77;;
29314;SDS011;16320;53.954;9.506;2022-12-29T18:42:53;27.92;;;9.70;;
29314;SDS011;16320;53.954;9.506;2022-12-29T18:45:58;18.00;;;4.35;;
29314;SDS011;16320;53.954;9.506;2022-12-29T18:49:02;26.02;;;6.20;;
29314;SDS011;16320;53.954;9.506;2022-12-29T18:52:10;25.77;;;7.35;;
29314;SDS011;16320;53.954;9.506;2022-12-29T18:55:20;33.17;;;8.35;;
29314;SDS011;16320;53.954;9.506;2022-12-29T18:58:27;39.30;;;16.38;;
29314;SDS011;16320;53.954;9.506;2022-12-29T19:01:37;38.97;;;11.65;;
29314;SDS011;16320;53.954;9.506;2022-12-29T19:04:42;17.67;;;4.95;;
29314;SDS011;16320;53.954;9.506;2022-12-29T19:07:47;14.65;;;4.22;;
29314;SDS011;16320;53.954;9.506;2022-12-29T19:10:53;16.33;;;3.28;;
29314;SDS011;16320;53.954;9.506;2022-12-29T19:13:58;15.80;;;4.38;;
29314;SDS011;16320;53.954;9.506;2022-12-29T19:17:03;25.17;;;4.18;;
29314;SDS011;16320;53.954;9.506;2022-12-29T19:20:25;19.15;;;4.25;;
29314;SDS011;16320;53.954;9.506;2022-12-29T19:23:45;19.20;;;5.07;;
29314;SDS011;16320;53.954;9.506;2022-12-29T19:26:50;10.70;;;4.22;;
29314;SDS011;16320;53.954;9.506;2022-12-29T19:29:54;17.75;;;5.07;;
29314;SDS011;16320;53.954;9.506;2022-12-29T19:32:59;13.30;;;4.85;;
29314;SDS011;16320;53.954;9.506;2022-12-29T19:36:13;14.00;;;4.27;;
29314;SDS011;16320;53.954;9.506;2022-12-29T19:39:20;14.93;;;3.92;;
29314;SDS011;16320;53.954;9.506;2022-12-29T19:42:25;11.82;;;3.35;;
29314;SDS011;16320;53.954;9.506;2022-12-29T19:45:29;11.73;;;4.25;;
29314;SDS011;16320;53.954;9.506;2022-12-29T19:48:34;10.65;;;2.20;;
29314;SDS011;16320;53.954;9.506;2022-12-29T19:51:39;6.40;;;1.77;;
29314;SDS011;16320;53.954;9.506;2022-12-29T19:54:43;6.80;;;1.42;;
29314;SDS011;16320;53.954;9.506;2022-12-29T20:00:51;1.83;;;1.52;;
29314;SDS011;16320;53.954;9.506;2022-12-29T20:03:56;1.58;;;0.82;;
29314;SDS011;16320;53.954;9.506;2022-12-29T20:07:00;2.22;;;0.80;;
29314;SDS011;16320;53.954;9.506;2022-12-29T20:10:05;7.00;;;0.60;;
29314;SDS011;16320;53.954;9.506;2022-12-29T20:13:11;3.03;;;0.82;;
29314;SDS011;16320;53.954;9.506;2022-12-29T20:16:16;1.52;;;0.50;;
29314;SDS011;16320;53.954;9.506;2022-12-29T20:19:22;1.45;;;0.60;;
29314;SDS011;16320;53.954;9.506;2022-12-29T20:22:27;3.30;;;1.00;;
29314;SDS011;16320;53.954;9.506;2022-12-29T20:25:32;3.55;;;1.30;;
29314;SDS011;16320;53.954;9.506;2022-12-29T20:28:56;3.45;;;2.50;;
29314;SDS011;16320;53.954;9.506;2022-12-29T20:32:01;3.40;;;1.90;;
29314;SDS011;16320;53.954;9.506;2022-12-29T20:35:05;7.00;;;2.33;;
29314;SDS011;16320;53.954;9.506;2022-12-29T20:38:10;9.13;;;2.58;;
29314;SDS011;16320;53.954;9.506;2022-12-29T20:44:20;8.10;;;4.05;;
29314;SDS011;16320;53.954;9.506;2022-12-29T20:47:26;10.45;;;3.20;;
29314;SDS011;16320;53.954;9.506;2022-12-29T20:50:30;7.22;;;3.28;;
29314;SDS011;16320;53.954;9.506;2022-12-29T20:53:35;10.25;;;3.60;;
29314;SDS011;16320;53.954;9.506;2022-12-29T20:56:41;14.90;;;5.00;;
29314;SDS011;16320;53.954;9.506;2022-12-29T20:59:45;11.82;;;3.13;;
29314;SDS011;16320;53.954;9.506;2022-12-29T21:02:50;12.23;;;4.15;;
29314;SDS011;16320;53.954;9.506;2022-12-29T21:05:56;12.13;;;3.45;;
29314;SDS011;16320;53.954;9.506;2022-12-29T21:09:03;13.25;;;3.63;;
29314;SDS011;16320;53.954;9.506;2022-12-29T21:12:08;20.73;;;3.35;;
29314;SDS011;16320;53.954;9.506;2022-12-29T21:15:13;15.95;;;5.00;;
29314;SDS011;16320;53.954;9.506;2022-12-29T21:18:19;13.32;;;3.28;;
29314;SDS011;16320;53.954;9.506;2022-12-29T21:21:24;9.75;;;3.75;;
29314;SDS011;16320;53.954;9.506;2022-12-29T21:24:29;15.68;;;4.07;;
29314;SDS011;16320;53.954;9.506;2022-12-29T21:27:33;20.02;;;3.00;;
29314;SDS011;16320;53.954;9.506;2022-12-29T21:30:38;13.77;;;3.15;;
29314;SDS011;16320;53.954;9.506;2022-12-29T21:33:43;18.20;;;3.17;;
29314;SDS011;16320;53.954;9.506;2022-12-29T21:36:47;27.90;;;5.13;;
29314;SDS011;16320;53.954;9.506;2022-12-29T21:39:52;14.60;;;2.90;;
29314;SDS011;16320;53.954;9.506;2022-12-29T21:42:56;11.95;;;3.08;;
29314;SDS011;16320;53.954;9.506;2022-12-29T21:46:02;12.23;;;3.65;;
29314;SDS011;16320;53.954;9.506;2022-12-29T21:49:08;18.25;;;3.30;;
29314;SDS011;16320;53.954;9.506;2022-12-29T21:52:13;15.27;;;3.47;;